sensor_id;sensor_type;location;lat;lon;timestamp;pressure;altitude;pressure_sealevel;temperature;humidity
76331;BME280;65148;51.912;15.570;2023-02-11T00:08:42;102970.07;;;2.59;79.67
76331;BME280;65148;51.912;15.570;2023-02-11T00:23:44;102935.46;;;2.56;79.14
76331;BME280;65148;51.912;15.570;2023-02-11T00:38:46;102897.17;;;2.31;80.28
76331;BME280;65148;51.912;15.570;2023-02-11T00:53:47;102873.89;;;2.24;80.15
76331;BME280;65148;51.912;15.570;2023-02-11T01:09:10;102859.20;;;2.11;80.38
76331;BME280;65148;51.912;15.570;2023-02-11T01:24:11;102847.67;;;2.03;80.87
76331;BME280;65148;51.912;15.570;2023-02-11T01:39:12;102813.20;;;2.06;80.42
76331;BME280;65148;51.912;15.570;2023-02-11T01:54:17;102786.83;;;2.10;80.33
76331;BME280;65148;51.912;15.570;2023-02-11T02:09:54;102758.05;;;2.18;80.25
76331;BME280;65148;51.912;15.570;2023-02-11T02:55:47;102744.19;;;2.44;80.35
76331;BME280;65148;51.912;15.570;2023-02-11T03:10:52;102741.42;;;2.82;79.56
76331;BME280;65148;51.912;15.570;2023-02-11T03:41:22;102709.41;;;3.02;79.98
76331;BME280;65148;51.912;15.570;2023-02-11T03:56:26;102689.82;;;3.44;79.52
76331;BME280;65148;51.912;15.570;2023-02-11T04:11:28;102665.69;;;3.36;81.76
76331;BME280;65148;51.912;15.570;2023-02-11T04:26:29;102674.82;;;3.56;82.66
76331;BME280;65148;51.912;15.570;2023-02-11T04:41:48;102655.01;;;3.42;85.97
76331;BME280;65148;51.912;15.570;2023-02-11T04:56:49;102641.27;;;3.37;88.77
76331;BME280;65148;51.912;15.570;2023-02-11T05:11:50;102629.28;;;3.18;91.64
76331;BME280;65148;51.912;15.570;2023-02-11T05:26:51;102614.54;;;3.36;91.99
76331;BME280;65148;51.912;15.570;2023-02-11T05:42:17;102610.96;;;3.28;92.65
76331;BME280;65148;51.912;15.570;2023-02-11T05:57:19;102598.14;;;3.30;93.68
76331;BME280;65148;51.912;15.570;2023-02-11T06:12:20;102584.63;;;3.45;94.10
76331;BME280;65148;51.912;15.570;2023-02-11T06:27:21;102565.45;;;3.55;93.71
76331;BME280;65148;51.912;15.570;2023-02-11T06:42:45;102562.15;;;3.59;92.65
76331;BME280;65148;51.912;15.570;2023-02-11T06:57:46;102590.39;;;3.70;93.95
76331;BME280;65148;51.912;15.570;2023-02-11T07:12:47;102586.46;;;4.00;93.92
76331;BME280;65148;51.912;15.570;2023-02-11T07:27:48;102598.55;;;4.11;95.02
76331;BME280;65148;51.912;15.570;2023-02-11T07:43:13;102590.88;;;4.08;96.17
76331;BME280;65148;51.912;15.570;2023-02-11T07:58:14;102557.74;;;4.14;96.68
76331;BME280;65148;51.912;15.570;2023-02-11T08:13:16;102551.78;;;4.25;96.78
76331;BME280;65148;51.912;15.570;2023-02-11T08:28:16;102553.27;;;4.34;95.80
76331;BME280;65148;51.912;15.570;2023-02-11T08:43:43;102569.63;;;4.26;96.89
76331;BME280;65148;51.912;15.570;2023-02-11T08:58:45;102566.25;;;4.65;95.96
76331;BME280;65148;51.912;15.570;2023-02-11T09:13:47;102579.84;;;4.92;95.33
76331;BME280;65148;51.912;15.570;2023-02-11T09:28:48;102520.46;;;4.92;96.15
76331;BME280;65148;51.912;15.570;2023-02-11T09:44:18;102527.52;;;4.93;96.98
76331;BME280;65148;51.912;15.570;2023-02-11T09:59:20;102569.74;;;5.40;94.19
76331;BME280;65148;51.912;15.570;2023-02-11T10:30:01;102571.58;;;5.66;92.33
76331;BME280;65148;51.912;15.570;2023-02-11T10:45:05;102557.27;;;5.72;93.28
76331;BME280;65148;51.912;15.570;2023-02-11T11:15:36;102506.10;;;5.83;98.15
76331;BME280;65148;51.912;15.570;2023-02-11T11:30:40;102508.23;;;5.62;100.00
76331;BME280;65148;51.912;15.570;2023-02-11T11:45:57;102479.88;;;5.97;100.00
76331;BME280;65148;51.912;15.570;2023-02-11T13:02:38;102453.95;;;6.34;100.00
76331;BME280;65148;51.912;15.570;2023-02-11T13:33:16;102436.68;;;6.29;100.00
76331;BME280;65148;51.912;15.570;2023-02-11T14:33:57;102477.38;;;6.02;100.00
76331;BME280;65148;51.912;15.570;2023-02-11T14:49:02;102516.45;;;6.13;100.00
76331;BME280;65148;51.912;15.570;2023-02-11T15:04:20;102518.27;;;6.26;100.00
76331;BME280;65148;51.912;15.570;2023-02-11T15:19:32;102538.04;;;6.19;100.00
76331;BME280;65148;51.912;15.570;2023-02-11T15:34:35;102531.80;;;6.19;100.00
76331;BME280;65148;51.912;15.570;2023-02-11T15:49:38;102552.10;;;6.41;100.00
76331;BME280;65148;51.912;15.570;2023-02-11T16:05:23;102559.59;;;6.39;100.00
76331;BME280;65148;51.912;15.570;2023-02-11T16:20:22;102587.80;;;6.63;100.00
76331;BME280;65148;51.912;15.570;2023-02-11T16:35:23;102603.42;;;6.68;100.00
76331;BME280;65148;51.912;15.570;2023-02-11T16:50:52;102622.73;;;6.78;100.00
76331;BME280;65148;51.912;15.570;2023-02-11T17:05:54;102637.16;;;7.03;100.00
76331;BME280;65148;51.912;15.570;2023-02-11T17:20:55;102666.59;;;6.93;100.00
76331;BME280;65148;51.912;15.570;2023-02-11T17:35:56;102676.30;;;7.14;100.00
76331;BME280;65148;51.912;15.570;2023-02-11T17:51:28;102700.05;;;7.12;100.00
76331;BME280;65148;51.912;15.570;2023-02-11T18:06:29;102734.14;;;7.26;100.00
76331;BME280;65148;51.912;15.570;2023-02-11T18:21:33;102737.20;;;7.43;100.00
76331;BME280;65148;51.912;15.570;2023-02-11T18:37:01;102765.38;;;7.35;100.00
76331;BME280;65148;51.912;15.570;2023-02-11T18:52:02;102786.56;;;7.51;100.00
76331;BME280;65148;51.912;15.570;2023-02-11T19:07:04;102797.18;;;7.53;100.00
76331;BME280;65148;51.912;15.570;2023-02-11T19:22:05;102811.09;;;7.63;100.00
76331;BME280;65148;51.912;15.570;2023-02-11T19:37:27;102821.36;;;7.54;100.00
76331;BME280;65148;51.912;15.570;2023-02-11T19:52:28;102831.55;;;7.59;100.00
76331;BME280;65148;51.912;15.570;2023-02-11T20:07:29;102846.14;;;7.58;100.00
76331;BME280;65148;51.912;15.570;2023-02-11T20:22:30;102847.42;;;7.55;100.00
76331;BME280;65148;51.912;15.570;2023-02-11T20:37:53;102874.13;;;7.39;100.00
76331;BME280;65148;51.912;15.570;2023-02-11T20:52:54;102898.91;;;7.55;100.00
76331;BME280;65148;51.912;15.570;2023-02-11T21:07:55;102922.27;;;7.56;100.00
76331;BME280;65148;51.912;15.570;2023-02-11T21:22:57;102931.20;;;7.63;100.00
76331;BME280;65148;51.912;15.570;2023-02-11T21:38:19;102958.16;;;7.45;100.00
76331;BME280;65148;51.912;15.570;2023-02-11T21:53:21;102991.45;;;7.72;100.00
76331;BME280;65148;51.912;15.570;2023-02-11T22:08:23;103010.83;;;7.69;100.00
76331;BME280;65148;51.912;15.570;2023-02-11T22:23:24;103016.91;;;7.64;100.00
76331;BME280;65148;51.912;15.570;2023-02-11T22:38:45;103029.63;;;7.51;100.00
76331;BME280;65148;51.912;15.570;2023-02-11T22:53:55;103052.33;;;7.69;100.00
76331;BME280;65148;51.912;15.570;2023-02-11T23:08:57;103075.30;;;7.41;100.00
76331;BME280;65148;51.912;15.570;2023-02-11T23:24:00;103069.47;;;7.44;100.00
76331;BME280;65148;51.912;15.570;2023-02-11T23:39:15;103064.24;;;7.22;100.00
76331;BME280;65148;51.912;15.570;2023-02-11T23:54:17;103098.02;;;7.53;100.00
